createdAt,value
2018-07-22T00:00:34.894Z,53.87
2018-07-22T00:03:04.113Z,53.95
2018-07-22T00:05:33.323Z,54.56
2018-07-22T00:08:02.574Z,53.95
2018-07-22T00:10:31.720Z,53.82
2018-07-22T00:13:01.093Z,53.99
2018-07-22T00:15:30.393Z,55.01
2018-07-22T00:17:59.193Z,55.19
2018-07-22T00:20:28.541Z,55.04
2018-07-22T00:22:57.870Z,54.83
2018-07-22T00:25:27.023Z,54.35
2018-07-22T00:27:56.003Z,54.82
2018-07-22T00:30:25.329Z,54.54
2018-07-22T00:32:54.377Z,53.42
2018-07-22T00:35:23.646Z,55.15
2018-07-22T00:37:52.800Z,55.46
2018-07-22T00:40:22.051Z,53.05
2018-07-22T00:42:51.183Z,51.74
2018-07-22T00:45:20.422Z,52.24
2018-07-22T00:47:49.204Z,52.97
2018-07-22T00:50:18.218Z,52.34
2018-07-22T00:52:47.498Z,53.71
2018-07-22T00:55:16.553Z,54.56
2018-07-22T00:57:45.717Z,54.39
2018-07-22T01:00:14.742Z,53.80
2018-07-22T01:02:44.000Z,52.64
2018-07-22T01:05:13.201Z,52.90
2018-07-22T01:07:42.331Z,54.81
2018-07-22T01:10:11.486Z,53.91
2018-07-22T01:12:40.710Z,53.23
2018-07-22T01:15:09.871Z,53.88
2018-07-22T01:17:38.900Z,54.95
2018-07-22T01:20:08.537Z,52.84
2018-07-22T01:22:37.403Z,53.77
2018-07-22T01:25:06.415Z,53.72
2018-07-22T01:27:35.965Z,53.74
2018-07-22T01:30:06.337Z,52.32
2018-07-22T01:32:35.638Z,50.96
2018-07-22T01:35:05.030Z,49.81
2018-07-22T01:37:34.263Z,49.95
2018-07-22T01:40:03.314Z,50.90
2018-07-22T01:42:32.468Z,49.95
2018-07-22T01:45:02.292Z,50.27
2018-07-22T01:47:31.547Z,51.70
2018-07-22T01:50:00.458Z,52.15
2018-07-22T01:52:29.718Z,52.05
2018-07-22T01:54:59.065Z,53.59
2018-07-22T01:57:28.300Z,51.68
2018-07-22T01:59:57.423Z,52.54
2018-07-22T02:02:26.589Z,53.66
2018-07-22T02:04:55.590Z,53.03
2018-07-22T02:07:24.357Z,53.63
2018-07-22T02:09:53.518Z,53.52
2018-07-22T02:12:22.668Z,53.00
2018-07-22T02:14:51.753Z,54.64
2018-07-22T02:17:20.795Z,53.97
2018-07-22T02:19:49.641Z,52.98
2018-07-22T02:22:18.634Z,52.22
2018-07-22T02:24:47.767Z,52.97
2018-07-22T02:27:16.820Z,52.15
2018-07-22T02:29:45.913Z,52.70
2018-07-22T02:32:15.095Z,54.02
2018-07-22T02:34:44.155Z,54.47
2018-07-22T02:37:13.207Z,53.87
2018-07-22T02:39:42.360Z,54.37
2018-07-22T02:42:11.490Z,53.62
2018-07-22T02:44:40.769Z,54.14
2018-07-22T02:47:09.625Z,55.69
2018-07-22T02:49:38.772Z,55.58
2018-07-22T02:52:07.926Z,54.23
2018-07-22T02:54:37.026Z,55.63
2018-07-22T02:57:06.731Z,54.73
2018-07-22T02:59:35.900Z,54.89
2018-07-22T03:02:05.211Z,54.25
2018-07-22T03:04:34.368Z,55.00
2018-07-22T03:07:03.272Z,54.93
2018-07-22T03:09:32.196Z,54.28
2018-07-22T03:12:01.078Z,55.44
2018-07-22T03:14:30.368Z,55.34
2018-07-22T03:16:59.255Z,53.77
2018-07-22T03:19:28.303Z,55.47
2018-07-22T03:21:57.505Z,55.72
2018-07-22T03:24:26.702Z,54.53
2018-07-22T03:26:55.480Z,55.37
2018-07-22T03:29:24.811Z,55.85
2018-07-22T03:31:53.586Z,56.29
2018-07-22T03:34:22.672Z,56.29
2018-07-22T03:36:51.995Z,56.48
2018-07-22T03:39:21.297Z,56.02
2018-07-22T03:41:50.380Z,57.53
2018-07-22T03:44:19.325Z,57.56
2018-07-22T03:46:48.351Z,57.38
2018-07-22T03:49:17.576Z,57.83
2018-07-22T03:51:46.766Z,57.46
2018-07-22T03:54:16.002Z,57.02
2018-07-22T03:56:45.283Z,58.74
2018-07-22T03:59:14.553Z,58.58
2018-07-22T04:01:43.879Z,59.76
2018-07-22T04:04:13.022Z,57.77
2018-07-22T04:06:42.160Z,58.64
2018-07-22T04:09:11.754Z,58.79
2018-07-22T04:11:41.050Z,57.19
2018-07-22T04:14:09.865Z,58.04
2018-07-22T04:16:38.991Z,58.87
2018-07-22T04:19:07.862Z,58.75
2018-07-22T04:21:36.940Z,58.52
2018-07-22T04:24:06.314Z,59.19
2018-07-22T04:26:35.610Z,59.40
2018-07-22T04:29:04.794Z,59.47
2018-07-22T04:31:33.859Z,58.64
2018-07-22T04:34:03.193Z,59.64
2018-07-22T04:36:32.329Z,59.75
2018-07-22T04:39:01.375Z,59.22
2018-07-22T04:41:30.651Z,59.02
2018-07-22T04:43:59.925Z,59.42
2018-07-22T04:46:29.059Z,56.98
2018-07-22T04:48:57.776Z,56.94
2018-07-22T04:51:27.071Z,55.72
2018-07-22T04:53:56.243Z,55.95
2018-07-22T04:56:25.203Z,57.48
2018-07-22T04:58:54.322Z,57.36
2018-07-22T05:01:23.567Z,57.58
2018-07-22T05:03:52.762Z,56.69
2018-07-22T05:06:21.998Z,56.91
2018-07-22T05:08:51.125Z,56.83
2018-07-22T05:11:20.452Z,56.08
2018-07-22T05:13:49.482Z,55.44
2018-07-22T05:16:18.667Z,56.75
2018-07-22T05:18:47.739Z,56.95
2018-07-22T05:21:16.542Z,56.70
2018-07-22T05:23:45.628Z,56.58
2018-07-22T05:26:14.533Z,56.19
2018-07-22T05:28:43.373Z,56.62
2018-07-22T05:31:12.417Z,55.81
2018-07-22T05:33:41.460Z,56.69
2018-07-22T05:36:10.500Z,55.54
2018-07-22T05:38:39.702Z,55.96
2018-07-22T05:41:08.869Z,54.97
2018-07-22T05:43:38.017Z,54.74
2018-07-22T05:46:07.053Z,54.88
2018-07-22T05:48:36.451Z,54.51
2018-07-22T05:51:05.547Z,53.21
2018-07-22T05:53:34.716Z,53.23
2018-07-22T05:56:04.006Z,53.38
2018-07-22T05:58:33.201Z,53.06
2018-07-22T06:01:02.026Z,54.55
2018-07-22T06:03:30.970Z,53.79
2018-07-22T06:05:59.819Z,54.24
2018-07-22T06:08:28.758Z,53.82
2018-07-22T06:10:57.722Z,53.17
2018-07-22T06:13:26.828Z,53.29
2018-07-22T06:15:56.182Z,52.77
2018-07-22T06:18:25.023Z,53.45
2018-07-22T06:20:54.117Z,52.55
2018-07-22T06:23:23.262Z,51.86
2018-07-22T06:25:52.206Z,52.45
2018-07-22T06:28:21.275Z,52.10
2018-07-22T06:30:50.304Z,52.36
2018-07-22T06:33:19.307Z,52.50
2018-07-22T06:35:48.550Z,53.01
2018-07-22T06:38:17.475Z,53.85
2018-07-22T06:40:46.689Z,53.15
2018-07-22T06:43:15.915Z,53.06
2018-07-22T06:45:45.193Z,53.25
2018-07-22T06:48:14.407Z,51.54
2018-07-22T06:50:43.443Z,52.21
2018-07-22T06:53:12.788Z,51.88
2018-07-22T06:55:41.955Z,52.30
2018-07-22T06:58:11.279Z,51.57
2018-07-22T07:00:40.078Z,51.15
2018-07-22T07:03:08.954Z,50.17
2018-07-22T07:05:38.182Z,50.32
2018-07-22T07:08:07.333Z,50.41
2018-07-22T07:10:36.238Z,50.89
2018-07-22T07:13:05.451Z,50.66
2018-07-22T07:15:34.750Z,49.91
2018-07-22T07:18:03.560Z,50.33
2018-07-22T07:20:32.313Z,49.04
2018-07-22T07:23:01.290Z,49.60
2018-07-22T07:25:30.562Z,50.17
2018-07-22T07:27:59.636Z,48.51
2018-07-22T07:30:28.720Z,48.38
2018-07-22T07:32:57.770Z,48.83
2018-07-22T07:35:26.761Z,47.97
2018-07-22T07:37:55.906Z,46.98
2018-07-22T07:40:24.878Z,47.41
2018-07-22T07:42:53.966Z,46.26
2018-07-22T07:45:23.206Z,45.44
2018-07-22T07:47:52.199Z,44.98
2018-07-22T07:50:21.334Z,44.86
2018-07-22T07:52:50.587Z,45.03
2018-07-22T07:55:19.399Z,44.65
2018-07-22T07:57:48.586Z,44.46
2018-07-22T08:00:17.908Z,45.28
2018-07-22T08:02:46.988Z,44.63
2018-07-22T08:05:16.192Z,43.79
2018-07-22T08:07:45.453Z,44.15
2018-07-22T08:10:14.531Z,43.93
2018-07-22T08:12:43.689Z,42.56
2018-07-22T08:15:12.788Z,44.07
2018-07-22T08:17:42.099Z,43.68
2018-07-22T08:20:11.303Z,42.71
2018-07-22T08:22:40.510Z,41.97
2018-07-22T08:25:09.881Z,42.24
2018-07-22T08:27:39.168Z,42.33
2018-07-22T08:30:08.118Z,41.99
2018-07-22T08:32:37.131Z,41.04
2018-07-22T08:35:06.427Z,41.25
2018-07-22T08:37:35.827Z,41.40
2018-07-22T08:40:05.382Z,42.27
2018-07-22T08:42:34.838Z,42.68
2018-07-22T08:45:04.233Z,42.90
2018-07-22T08:47:33.582Z,42.17
2018-07-22T08:50:02.571Z,42.68
2018-07-22T08:52:31.844Z,40.96
2018-07-22T08:55:01.164Z,41.06
2018-07-22T08:57:30.423Z,40.89
2018-07-22T08:59:59.721Z,40.61
2018-07-22T09:02:28.914Z,39.92
2018-07-22T09:04:58.049Z,42.25
2018-07-22T09:07:27.274Z,40.77
2018-07-22T09:09:56.722Z,40.95
2018-07-22T09:12:25.660Z,42.44
2018-07-22T09:14:56.092Z,40.95
2018-07-22T09:17:25.494Z,41.36
2018-07-22T09:19:54.928Z,40.45
2018-07-22T09:22:24.203Z,40.92
2018-07-22T09:24:53.397Z,39.96
2018-07-22T09:27:22.455Z,39.90
2018-07-22T09:29:51.763Z,38.23
2018-07-22T09:32:21.134Z,37.36
2018-07-22T09:34:50.268Z,36.87
2018-07-22T09:37:19.258Z,35.72
2018-07-22T09:39:48.596Z,34.36
2018-07-22T09:42:17.482Z,32.53
2018-07-22T09:44:46.912Z,32.98
2018-07-22T09:47:16.131Z,31.00
2018-07-22T09:49:45.512Z,29.60
2018-07-22T09:52:14.475Z,28.02
2018-07-22T09:54:43.679Z,26.48
2018-07-22T09:57:13.749Z,25.59
2018-07-22T09:59:42.942Z,24.96
2018-07-22T10:02:12.368Z,24.67
2018-07-22T10:04:41.795Z,24.01
2018-07-22T10:07:11.172Z,22.89
2018-07-22T10:09:40.236Z,21.85
2018-07-22T10:12:09.284Z,20.62
2018-07-22T10:14:38.627Z,20.19
2018-07-22T10:17:08.524Z,20.32
2018-07-22T10:19:38.900Z,19.21
2018-07-22T10:22:08.348Z,17.82
2018-07-22T10:24:37.807Z,18.18
2018-07-22T10:27:08.123Z,17.52
2018-07-22T10:29:37.407Z,17.43
2018-07-22T10:32:07.072Z,18.34
2018-07-22T10:34:36.104Z,17.91
2018-07-22T10:37:05.361Z,18.54
2018-07-22T10:39:34.353Z,17.76
2018-07-22T10:42:03.432Z,16.79
2018-07-22T10:44:32.775Z,16.37
2018-07-22T10:47:02.874Z,16.28
2018-07-22T10:49:32.206Z,16.03
2018-07-22T10:52:01.351Z,14.90
2018-07-22T10:54:30.774Z,14.95
2018-07-22T10:57:00.025Z,14.51
2018-07-22T10:59:29.319Z,15.34
2018-07-22T11:01:58.605Z,14.75
2018-07-22T11:04:28.044Z,14.59
2018-07-22T11:06:57.645Z,15.28
2018-07-22T11:09:27.034Z,14.90
2018-07-22T11:11:56.425Z,15.30
2018-07-22T11:14:25.967Z,15.43
2018-07-22T11:16:55.351Z,15.04
2018-07-22T11:19:24.270Z,14.36
2018-07-22T11:21:53.567Z,13.95
2018-07-22T11:27:06.443Z,14.99
2018-07-22T11:29:36.086Z,15.63
2018-07-22T11:32:05.350Z,15.99
2018-07-22T11:34:34.620Z,15.35
2018-07-22T11:37:04.077Z,15.67
2018-07-22T11:39:33.838Z,14.89
2018-07-22T11:42:02.918Z,14.29
2018-07-22T11:44:31.979Z,14.52
2018-07-22T11:47:01.181Z,14.52
2018-07-22T11:49:30.083Z,15.66
2018-07-22T11:51:59.329Z,15.14
2018-07-22T11:54:28.320Z,15.25
2018-07-22T11:56:57.715Z,14.96
2018-07-22T11:59:27.044Z,14.80
2018-07-22T12:01:56.870Z,15.32
2018-07-22T12:04:26.065Z,14.61
2018-07-22T12:06:55.585Z,15.79
2018-07-22T12:09:25.096Z,14.92
2018-07-22T12:11:54.082Z,15.96
2018-07-22T12:14:23.148Z,15.64
2018-07-22T12:16:52.372Z,17.04
2018-07-22T12:19:21.771Z,16.44
2018-07-22T12:21:50.959Z,16.10
2018-07-22T12:24:20.346Z,16.30
2018-07-22T12:26:49.382Z,16.20
2018-07-22T12:29:18.653Z,16.13
2018-07-22T12:31:47.879Z,15.53
2018-07-22T12:34:17.185Z,15.39
2018-07-22T12:36:46.476Z,16.46
2018-07-22T12:39:16.110Z,16.26
2018-07-22T12:41:45.457Z,17.05
2018-07-22T12:44:14.747Z,16.03
2018-07-22T12:46:44.041Z,15.70
2018-07-22T12:49:13.423Z,15.93
2018-07-22T12:51:42.689Z,16.00
2018-07-22T12:54:12.098Z,15.93
2018-07-22T12:56:41.279Z,15.92
2018-07-22T12:59:10.730Z,16.75
2018-07-22T13:01:39.985Z,17.60
2018-07-22T13:04:09.351Z,17.50
2018-07-22T13:06:38.539Z,17.04
2018-07-22T13:09:09.769Z,17.60
2018-07-22T13:11:39.072Z,19.59
2018-07-22T13:14:08.549Z,19.76
2018-07-22T13:16:37.816Z,20.76
2018-07-22T13:19:07.226Z,21.63
2018-07-22T13:21:37.521Z,21.95
2018-07-22T13:24:08.588Z,22.35
2018-07-22T13:26:37.949Z,23.79
2018-07-22T13:29:07.340Z,24.31
2018-07-22T13:31:36.645Z,23.87
2018-07-22T13:34:06.073Z,24.93
2018-07-22T13:36:35.537Z,24.47
2018-07-22T13:39:07.295Z,22.53
2018-07-22T13:41:36.759Z,23.83
2018-07-22T13:44:06.059Z,22.77
2018-07-22T13:46:35.297Z,22.19
2018-07-22T13:49:04.536Z,21.25
2018-07-22T13:51:33.688Z,21.88
2018-07-22T13:54:03.130Z,22.33
2018-07-22T13:56:32.414Z,23.03
2018-07-22T13:59:01.889Z,23.08
2018-07-22T14:01:31.192Z,23.25
2018-07-22T14:04:00.702Z,24.04
2018-07-22T14:06:29.935Z,24.43
2018-07-22T14:08:59.362Z,23.05
2018-07-22T14:11:28.740Z,21.73
2018-07-22T14:13:58.073Z,22.85
2018-07-22T14:16:27.487Z,22.96
2018-07-22T14:18:56.727Z,24.92
2018-07-22T14:21:25.924Z,25.81
2018-07-22T14:23:55.190Z,26.16
2018-07-22T14:26:24.184Z,26.46
2018-07-22T14:28:53.194Z,26.37
2018-07-22T14:31:22.406Z,27.46
2018-07-22T14:33:51.767Z,26.28
2018-07-22T14:36:21.828Z,27.34
2018-07-22T14:38:51.185Z,27.01
2018-07-22T14:41:20.419Z,26.45
2018-07-22T14:43:49.820Z,27.45
2018-07-22T14:46:19.192Z,29.29
2018-07-22T14:48:48.089Z,28.71
2018-07-22T14:51:17.487Z,28.02
2018-07-22T14:53:46.955Z,29.91
2018-07-22T14:56:16.373Z,29.31
2018-07-22T14:58:45.710Z,29.10
2018-07-22T15:01:14.866Z,29.27
2018-07-22T15:03:44.660Z,30.58
2018-07-22T15:06:13.967Z,29.77
2018-07-22T15:08:43.699Z,30.39
2018-07-22T15:11:12.601Z,30.39
2018-07-22T15:13:41.909Z,31.51
2018-07-22T15:16:11.222Z,32.13
2018-07-22T15:18:40.672Z,33.38
2018-07-22T15:21:10.038Z,35.66
2018-07-22T15:23:38.964Z,36.82
2018-07-22T15:26:08.467Z,36.71
2018-07-22T15:28:37.578Z,36.41
2018-07-22T15:31:06.755Z,35.50
2018-07-22T15:33:36.049Z,35.81
2018-07-22T15:36:05.437Z,36.00
2018-07-22T15:38:34.316Z,35.07
2018-07-22T15:41:03.658Z,35.95
2018-07-22T15:43:33.067Z,35.90
2018-07-22T15:46:02.228Z,35.82
2018-07-22T15:48:31.613Z,36.14
2018-07-22T15:51:00.984Z,38.38
2018-07-22T15:53:30.107Z,40.13
2018-07-22T15:55:59.044Z,38.03
2018-07-22T15:58:28.538Z,38.86
2018-07-22T16:00:57.802Z,41.71
2018-07-22T16:03:26.850Z,41.02
2018-07-22T16:05:55.917Z,39.61
2018-07-22T16:08:25.196Z,37.13
2018-07-22T16:10:54.413Z,37.15
2018-07-22T16:13:23.620Z,36.91
2018-07-22T16:15:53.131Z,37.20
2018-07-22T16:18:22.220Z,38.42
2018-07-22T16:20:51.587Z,38.61
2018-07-22T16:23:20.816Z,38.60
2018-07-22T16:25:50.084Z,38.40
2018-07-22T16:28:19.079Z,40.28
2018-07-22T16:30:48.265Z,40.07
2018-07-22T16:33:17.505Z,41.60
2018-07-22T16:35:46.769Z,41.64
2018-07-22T16:38:16.094Z,42.74
2018-07-22T16:40:45.388Z,44.28
2018-07-22T16:43:14.735Z,43.22
2018-07-22T16:45:43.682Z,43.74
2018-07-22T16:48:12.848Z,44.72
2018-07-22T16:50:42.046Z,45.50
2018-07-22T16:53:11.248Z,46.43
2018-07-22T16:55:40.512Z,45.89
2018-07-22T16:58:09.828Z,44.71
2018-07-22T17:00:39.288Z,44.29
2018-07-22T17:03:08.456Z,43.97
2018-07-22T17:05:37.967Z,44.43
2018-07-22T17:08:07.416Z,45.86
2018-07-22T17:10:36.640Z,45.74
2018-07-22T17:13:05.820Z,45.29
2018-07-22T17:15:34.950Z,44.15
2018-07-22T17:18:03.952Z,45.01
2018-07-22T17:20:33.011Z,44.17
2018-07-22T17:23:02.185Z,43.57
2018-07-22T17:25:31.447Z,44.96
2018-07-22T17:28:00.670Z,44.90
2018-07-22T17:30:30.031Z,45.75
2018-07-22T17:32:59.280Z,45.90
2018-07-22T17:35:28.185Z,45.76
2018-07-22T17:37:57.578Z,44.85
2018-07-22T17:40:26.615Z,45.23
2018-07-22T17:42:56.010Z,44.97
2018-07-22T17:45:25.273Z,44.22
2018-07-22T17:47:54.815Z,43.52
2018-07-22T17:50:24.275Z,44.90
2018-07-22T17:52:53.472Z,45.00
2018-07-22T17:55:22.444Z,45.21
2018-07-22T17:57:51.767Z,45.40
2018-07-22T18:00:21.092Z,45.51
2018-07-22T18:02:57.856Z,44.49
2018-07-22T18:05:27.429Z,45.82
2018-07-22T18:07:56.839Z,45.24
2018-07-22T18:10:25.996Z,45.72
2018-07-22T18:12:55.334Z,48.35
2018-07-22T18:15:24.602Z,48.06
2018-07-22T18:17:53.926Z,48.60
2018-07-22T18:20:23.165Z,48.28
2018-07-22T18:22:52.319Z,48.30
2018-07-22T18:25:21.686Z,47.52
2018-07-22T18:27:50.915Z,48.09
2018-07-22T18:30:20.432Z,47.66
2018-07-22T18:32:49.608Z,47.17
2018-07-22T18:35:18.802Z,47.97
2018-07-22T18:37:47.904Z,48.61
2018-07-22T18:40:17.111Z,49.45
2018-07-22T18:42:46.328Z,49.45
2018-07-22T18:45:15.509Z,48.87
2018-07-22T18:47:44.492Z,48.52
2018-07-22T18:50:13.769Z,47.94
2018-07-22T18:52:42.752Z,46.99
2018-07-22T18:55:11.972Z,48.39
2018-07-22T18:57:41.366Z,48.32
2018-07-22T19:00:10.448Z,47.87
2018-07-22T19:02:39.729Z,48.04
2018-07-22T19:05:08.937Z,49.37
2018-07-22T19:07:38.325Z,49.77
2018-07-22T19:10:07.717Z,51.51
2018-07-22T19:12:36.915Z,50.95
2018-07-22T19:15:06.399Z,52.22
2018-07-22T19:17:35.948Z,52.30
2018-07-22T19:20:05.611Z,52.75
2018-07-22T19:22:35.112Z,53.22
2018-07-22T19:25:04.815Z,53.82
2018-07-22T19:27:35.269Z,53.87
2018-07-22T19:30:04.632Z,53.13
2018-07-22T19:32:33.639Z,53.39
2018-07-22T19:35:03.087Z,51.45
2018-07-22T19:37:32.577Z,51.35
2018-07-22T19:40:01.997Z,52.00
2018-07-22T19:42:31.179Z,51.35
2018-07-22T19:45:00.188Z,52.19
2018-07-22T19:47:29.500Z,52.65
2018-07-22T19:49:58.685Z,52.33
2018-07-22T19:52:27.725Z,53.38
2018-07-22T19:54:56.932Z,54.04
2018-07-22T19:57:26.096Z,54.27
2018-07-22T19:59:55.539Z,54.96
2018-07-22T20:02:25.272Z,55.15
2018-07-22T20:04:54.373Z,55.10
2018-07-22T20:07:23.781Z,55.31
2018-07-22T20:09:53.200Z,54.76
2018-07-22T20:12:22.904Z,54.52
2018-07-22T20:14:52.335Z,55.28
2018-07-22T20:17:21.551Z,56.79
2018-07-22T20:19:50.851Z,56.63
2018-07-22T20:22:19.830Z,56.20
2018-07-22T20:24:49.237Z,57.86
2018-07-22T20:27:18.668Z,57.69
2018-07-22T20:29:47.988Z,56.91
2018-07-22T20:32:17.289Z,57.68
2018-07-22T20:34:47.239Z,57.19
2018-07-22T20:37:16.661Z,58.47
2018-07-22T20:39:45.876Z,58.55
2018-07-22T20:42:15.027Z,57.87
2018-07-22T20:44:44.618Z,58.40
2018-07-22T20:47:13.933Z,59.48
2018-07-22T20:49:43.050Z,59.75
2018-07-22T20:52:12.249Z,60.33
2018-07-22T20:54:41.651Z,60.45
2018-07-22T20:57:11.113Z,60.51
2018-07-22T20:59:40.349Z,60.53
2018-07-22T21:02:09.758Z,61.63
2018-07-22T21:04:38.959Z,60.42
2018-07-22T21:07:08.347Z,59.94
2018-07-22T21:09:37.587Z,61.44
2018-07-22T21:12:46.967Z,62.04
2018-07-22T21:15:16.853Z,62.95
2018-07-22T21:17:47.219Z,62.29
2018-07-22T21:20:17.517Z,62.54
2018-07-22T21:22:46.779Z,62.50
2018-07-22T21:25:16.547Z,62.75
2018-07-22T21:27:45.743Z,63.19
2018-07-22T21:30:15.381Z,62.40
2018-07-22T21:32:44.343Z,61.77
2018-07-22T21:35:13.641Z,62.04
2018-07-22T21:37:42.927Z,61.80
2018-07-22T21:40:12.130Z,62.45
2018-07-22T21:42:41.378Z,63.11
2018-07-22T21:45:10.512Z,64.13
2018-07-22T21:47:39.875Z,63.25
2018-07-22T21:50:09.201Z,63.79
2018-07-22T21:52:38.571Z,62.81
2018-07-22T21:55:07.891Z,62.70
2018-07-22T21:57:37.443Z,62.57
2018-07-22T22:00:13.640Z,63.32
2018-07-22T22:02:43.008Z,63.93
2018-07-22T22:05:12.379Z,63.94
2018-07-22T22:07:41.697Z,64.89
2018-07-22T22:10:11.113Z,64.83
2018-07-22T22:12:40.329Z,64.01
2018-07-22T22:15:19.521Z,64.40
2018-07-22T22:17:49.025Z,64.96
2018-07-22T22:20:18.113Z,65.29
2018-07-22T22:22:47.380Z,65.47
2018-07-22T22:25:16.699Z,65.73
2018-07-22T22:27:45.988Z,66.85
2018-07-22T22:30:16.347Z,66.63
2018-07-22T22:32:46.146Z,66.49
2018-07-22T22:35:15.652Z,67.00
2018-07-22T22:37:45.503Z,68.11
2018-07-22T22:40:15.599Z,67.19
2018-07-22T22:42:45.973Z,67.26
2018-07-22T22:45:15.735Z,67.13
2018-07-22T22:47:45.013Z,67.22
2018-07-22T22:50:14.181Z,67.58
2018-07-22T22:52:43.347Z,67.09
2018-07-22T22:55:12.607Z,66.82
2018-07-22T22:57:51.718Z,65.61
2018-07-22T23:00:21.224Z,65.30
2018-07-22T23:02:50.533Z,66.33
2018-07-22T23:05:19.880Z,66.05
2018-07-22T23:07:48.891Z,66.39
2018-07-22T23:10:18.195Z,67.15
2018-07-22T23:12:47.379Z,67.38
2018-07-22T23:15:16.360Z,67.60
2018-07-22T23:17:45.573Z,67.22
2018-07-22T23:20:14.770Z,67.13
2018-07-22T23:22:43.947Z,67.53
2018-07-22T23:25:13.302Z,67.59
2018-07-22T23:27:42.599Z,67.31
2018-07-22T23:30:11.893Z,67.59
2018-07-22T23:32:41.157Z,66.82
2018-07-22T23:35:10.502Z,67.53
2018-07-22T23:37:39.897Z,67.37
2018-07-22T23:40:09.288Z,67.13
2018-07-22T23:42:38.503Z,67.32
2018-07-22T23:45:07.501Z,67.45
2018-07-22T23:47:36.746Z,67.87
2018-07-22T23:50:06.362Z,69.21
2018-07-22T23:52:35.743Z,69.22
2018-07-22T23:55:04.825Z,68.78
2018-07-22T23:57:34.128Z,67.70
